Time;durP1;ratioP1;P1;durP2;ratioP2;P2;SDS_P1;SDS_P2;PMS_P1;PMS_P2;Temp;Humidity;BMP_temperature;BMP_pressure;BME280_temperature;BME280_humidity;BME280_pressure;Samples;Min_cycle;Max_cycle;Signal;HPM_P1;HPM_P2
2023/01/31 00:01:36;;;;;;;8.63;2.87;;;3.80;99.90;;;;;;5029609;28;20265;-61
2023/01/31 00:04:10;;;;;;;12.17;2.30;;;3.90;99.90;;;;;;5019428;28;20196;-61
2023/01/31 00:06:42;;;;;;;7.60;2.50;;;4.00;99.90;;;;;;5030536;28;20807;-60
2023/01/31 00:09:11;;;;;;;9.67;2.83;;;3.80;99.90;;;;;;5033674;28;20668;-61
2023/01/31 00:11:38;;;;;;;10.87;2.87;;;3.70;99.90;;;;;;5034576;28;20205;-61
2023/01/31 00:14:06;;;;;;;11.17;2.20;;;3.80;99.90;;;;;;5034783;28;20227;-61
2023/01/31 00:16:33;;;;;;;14.70;2.70;;;3.90;99.90;;;;;;5033926;28;20425;-61
2023/01/31 00:19:01;;;;;;;9.77;2.13;;;3.80;99.90;;;;;;5034015;28;20223;-61
2023/01/31 00:21:29;;;;;;;17.83;2.80;;;3.70;99.90;;;;;;5032893;28;20304;-61
2023/01/31 00:23:57;;;;;;;11.03;2.80;;;3.80;99.90;;;;;;5035164;28;20204;-61
2023/01/31 00:26:29;;;;;;;11.60;2.80;;;3.80;99.90;;;;;;5034457;28;20291;-61
2023/01/31 00:28:57;;;;;;;12.10;2.33;;;3.70;99.90;;;;;;5033292;28;20220;-61
2023/01/31 00:31:26;;;;;;;13.83;2.63;;;3.80;99.90;;;;;;5028711;28;20205;-61
2023/01/31 00:33:54;;;;;;;11.93;2.70;;;3.70;99.90;;;;;;5034299;28;20247;-61
2023/01/31 00:36:30;;;;;;;10.20;2.00;;;3.60;99.90;;;;;;5026215;28;20977;-60
2023/01/31 00:38:59;;;;;;;10.10;2.73;;;3.60;99.90;;;;;;5037394;28;20199;-62
2023/01/31 00:41:27;;;;;;;7.00;1.80;;;3.60;99.90;;;;;;5033309;28;20287;-63
2023/01/31 00:43:54;;;;;;;14.90;3.50;;;3.60;99.90;;;;;;5023068;28;20208;-61
2023/01/31 00:46:22;;;;;;;8.20;2.50;;;3.60;99.90;;;;;;5036172;28;20239;-61
2023/01/31 00:48:49;;;;;;;8.67;2.00;;;3.50;99.90;;;;;;5036509;28;20207;-61
2023/01/31 00:51:17;;;;;;;13.27;2.53;;;3.60;99.90;;;;;;5033340;28;20258;-61
2023/01/31 00:53:44;;;;;;;16.30;2.10;;;3.70;99.90;;;;;;5035131;28;20286;-60
2023/01/31 00:56:13;;;;;;;10.17;2.07;;;3.80;99.90;;;;;;5035460;28;20414;-60
2023/01/31 00:58:40;;;;;;;14.80;2.67;;;3.90;99.90;;;;;;5036192;28;20203;-60
2023/01/31 01:01:11;;;;;;;13.23;2.17;;;3.90;99.90;;;;;;5036418;28;20307;-60
2023/01/31 01:03:40;;;;;;;9.40;2.10;;;3.90;99.90;;;;;;5030721;28;20220;-61
2023/01/31 01:06:08;;;;;;;9.93;2.33;;;3.80;99.90;;;;;;5036575;28;20731;-60
2023/01/31 01:08:37;;;;;;;11.00;2.30;;;3.80;99.90;;;;;;5033295;28;20247;-60
2023/01/31 01:11:15;;;;;;;11.33;2.23;;;3.90;99.90;;;;;;5037535;28;20237;-59
2023/01/31 01:13:43;;;;;;;11.37;2.30;;;3.80;99.90;;;;;;5030781;28;20753;-61
2023/01/31 01:16:14;;;;;;;12.47;2.13;;;3.80;99.90;;;;;;5034375;28;20207;-60
2023/01/31 01:18:43;;;;;;;13.43;2.77;;;3.80;99.90;;;;;;5037291;28;20649;-61
2023/01/31 01:21:13;;;;;;;12.20;2.43;;;3.90;99.90;;;;;;5037336;28;20202;-61
2023/01/31 01:23:41;;;;;;;10.30;2.43;;;4.00;99.90;;;;;;5022141;28;20304;-60
2023/01/31 01:26:19;;;;;;;6.47;2.40;;;4.10;99.90;;;;;;5036532;28;20662;-59
2023/01/31 01:28:48;;;;;;;10.73;2.40;;;4.10;99.90;;;;;;5038180;28;20210;-60
2023/01/31 01:31:16;;;;;;;10.53;2.70;;;4.20;99.90;;;;;;5036669;28;20301;-61
2023/01/31 01:33:44;;;;;;;7.70;2.33;;;4.20;99.90;;;;;;5035624;28;20668;-60
2023/01/31 01:36:16;;;;;;;18.67;2.83;;;4.30;99.90;;;;;;5039255;28;20234;-60
2023/01/31 01:38:44;;;;;;;15.27;2.70;;;4.30;99.90;;;;;;5035992;28;20513;-60
2023/01/31 01:41:12;;;;;;;11.83;2.70;;;4.30;99.90;;;;;;5038015;28;20247;-60
2023/01/31 01:43:49;;;;;;;10.77;2.80;;;4.30;99.90;;;;;;5035382;28;20196;-60
2023/01/31 01:46:34;;;;;;;7.50;2.77;;;4.30;99.90;;;;;;5037376;28;20201;-60
2023/01/31 01:49:13;;;;;;;13.03;3.33;;;4.30;99.90;;;;;;5033341;28;20370;-60
2023/01/31 01:51:42;;;;;;;8.93;2.63;;;4.20;99.90;;;;;;5034238;28;20216;-60
2023/01/31 01:54:14;;;;;;;11.13;2.53;;;4.20;99.90;;;;;;5034010;28;20295;-59
2023/01/31 01:56:43;;;;;;;15.10;2.90;;;4.10;99.90;;;;;;5032218;28;20447;-59
2023/01/31 01:59:27;;;;;;;11.83;3.17;;;4.10;99.90;;;;;;5035898;28;20317;-59
2023/01/31 02:01:55;;;;;;;18.83;4.30;;;4.10;99.90;;;;;;5030914;28;20235;-58
2023/01/31 02:04:27;;;;;;;10.00;3.47;;;4.00;99.90;;;;;;5025369;28;20235;-59
2023/01/31 02:06:54;;;;;;;11.83;3.77;;;4.00;99.90;;;;;;5029969;28;20234;-59
2023/01/31 02:09:45;;;;;;;13.63;3.80;;;4.00;99.90;;;;;;5030385;28;20212;-59
2023/01/31 02:12:12;;;;;;;15.53;4.20;;;3.90;99.90;;;;;;5020409;28;20272;-58
2023/01/31 02:14:41;;;;;;;10.07;3.07;;;3.90;99.90;;;;;;5036772;28;20228;-58
2023/01/31 02:17:16;;;;;;;14.00;3.60;;;3.80;99.90;;;;;;5035632;28;20205;-58
2023/01/31 02:20:24;;;;;;;13.27;4.33;;;3.80;99.90;;;;;;5032284;28;20209;-58
2023/01/31 02:23:13;;;;;;;11.50;4.00;;;3.80;99.90;;;;;;5034191;28;20214;-58
2023/01/31 02:25:45;;;;;;;20.90;3.87;;;3.90;99.90;;;;;;5034986;28;20202;-59
2023/01/31 02:28:21;;;;;;;13.80;3.47;;;3.80;99.90;;;;;;5035900;28;20604;-59
2023/01/31 02:31:09;;;;;;;13.57;3.73;;;3.80;99.90;;;;;;5034934;28;20208;-61
2023/01/31 02:33:46;;;;;;;13.00;3.70;;;3.80;99.90;;;;;;5048981;28;20295;-59
2023/01/31 02:36:24;;;;;;;14.73;4.33;;;3.90;99.90;;;;;;5050076;28;20284;-61
2023/01/31 02:39:00;;;;;;;7.77;3.47;;;4.00;99.90;;;;;;5031766;28;20198;-59
2023/01/31 02:41:36;;;;;;;12.27;4.10;;;4.00;99.90;;;;;;5032139;28;20207;-59
2023/01/31 02:47:59;;;;;;;13.53;4.20;;;4.00;99.90;;;;;;5034748;28;20713;-59
2023/01/31 02:50:45;;;;;;;11.20;4.20;;;4.00;99.90;;;;;;5036024;28;20595;-60
2023/01/31 02:53:54;;;;;;;11.00;4.23;;;4.10;99.90;;;;;;5034632;28;20189;-59
2023/01/31 02:56:27;;;;;;;15.23;4.33;;;4.10;99.90;;;;;;5014983;28;20245;-58
2023/01/31 02:58:58;;;;;;;15.33;4.77;;;4.10;99.90;;;;;;5030313;28;20220;-59
2023/01/31 03:01:30;;;;;;;15.47;4.20;;;4.20;99.90;;;;;;5033451;28;20662;-59
2023/01/31 03:04:03;;;;;;;12.37;5.17;;;4.20;99.90;;;;;;5032295;28;20205;-59
2023/01/31 03:06:32;;;;;;;14.27;4.80;;;4.20;99.90;;;;;;5028912;28;20206;-60
2023/01/31 03:09:20;;;;;;;18.30;5.00;;;4.20;99.90;;;;;;5029345;28;20802;-61
2023/01/31 03:11:57;;;;;;;15.07;4.83;;;4.20;99.90;;;;;;5026680;28;20274;-60
2023/01/31 03:14:29;;;;;;;12.07;4.53;;;4.30;99.90;;;;;;5029300;28;20677;-59
2023/01/31 03:17:32;;;;;;;17.33;5.00;;;4.20;99.90;;;;;;5032386;28;20204;-58
2023/01/31 03:20:03;;;;;;;15.03;4.57;;;4.20;99.90;;;;;;5034134;28;20203;-59
2023/01/31 03:22:39;;;;;;;16.27;5.17;;;4.30;99.90;;;;;;5033404;28;20313;-59
2023/01/31 03:25:09;;;;;;;25.40;5.90;;;4.30;99.90;;;;;;5024353;28;20243;-58
2023/01/31 03:27:39;;;;;;;17.20;5.13;;;4.30;99.90;;;;;;5028459;28;20298;-61
2023/01/31 03:30:15;;;;;;;25.77;6.13;;;4.30;99.90;;;;;;5029442;28;20644;-60
2023/01/31 03:32:56;;;;;;;14.20;5.73;;;4.20;99.90;;;;;;5030606;28;20206;-59
2023/01/31 03:35:27;;;;;;;15.73;5.93;;;4.30;99.90;;;;;;5023128;28;20220;-59
2023/01/31 03:38:13;;;;;;;11.33;4.90;;;4.30;99.90;;;;;;5032029;28;20204;-59
2023/01/31 03:40:48;;;;;;;15.63;5.27;;;4.30;99.90;;;;;;5030633;28;20317;-59
2023/01/31 03:43:16;;;;;;;22.77;5.73;;;4.30;99.90;;;;;;5033845;28;20193;-59
2023/01/31 03:45:56;;;;;;;12.80;4.97;;;4.40;99.90;;;;;;5032433;28;20224;-59
2023/01/31 03:48:28;;;;;;;20.63;5.30;;;4.40;99.90;;;;;;5030192;28;20216;-60
2023/01/31 03:51:02;;;;;;;13.70;5.43;;;4.40;99.90;;;;;;5034564;28;20299;-59
2023/01/31 03:54:05;;;;;;;19.03;6.40;;;4.40;99.90;;;;;;5032563;28;20728;-61
2023/01/31 03:56:53;;;;;;;19.17;5.67;;;4.40;99.90;;;;;;5014189;28;20695;-59
2023/01/31 03:59:28;;;;;;;23.87;6.67;;;4.40;99.90;;;;;;5032762;28;20285;-59
2023/01/31 04:01:59;;;;;;;17.33;5.70;;;4.40;99.90;;;;;;5032381;28;20238;-58
2023/01/31 04:04:39;;;;;;;12.53;6.13;;;4.40;99.90;;;;;;5030464;28;20415;-59
2023/01/31 04:07:06;;;;;;;16.93;5.97;;;4.40;99.90;;;;;;5032639;28;20599;-59
2023/01/31 04:09:33;;;;;;;12.93;5.77;;;4.40;99.90;;;;;;5032706;28;20212;-59
2023/01/31 04:12:01;;;;;;;17.27;6.37;;;4.40;99.90;;;;;;5032975;28;20302;-59
2023/01/31 04:14:28;;;;;;;16.67;6.17;;;4.30;99.90;;;;;;5032191;28;20591;-59
2023/01/31 04:16:55;;;;;;;20.03;5.70;;;4.30;99.90;;;;;;5032187;28;20280;-61
2023/01/31 04:19:22;;;;;;;16.07;7.17;;;4.30;99.90;;;;;;5025433;28;20223;-61
2023/01/31 04:21:49;;;;;;;18.53;6.17;;;4.30;99.90;;;;;;5027974;28;20201;-61
2023/01/31 04:24:15;;;;;;;26.67;6.83;;;4.40;99.90;;;;;;5022504;28;20288;-61
2023/01/31 04:26:42;;;;;;;23.00;7.77;;;4.30;99.90;;;;;;5029082;28;20209;-61
2023/01/31 04:29:09;;;;;;;17.07;6.53;;;4.30;99.90;;;;;;5031091;28;20204;-60
2023/01/31 04:31:36;;;;;;;14.87;7.30;;;4.40;99.90;;;;;;5027122;28;20876;-62
2023/01/31 04:34:03;;;;;;;18.77;7.03;;;4.40;99.90;;;;;;5023362;28;20208;-60
2023/01/31 04:36:30;;;;;;;18.27;7.50;;;4.30;99.90;;;;;;5026743;28;20621;-61
2023/01/31 04:38:59;;;;;;;19.30;6.23;;;4.40;99.90;;;;;;5024607;28;20633;-61
2023/01/31 04:41:26;;;;;;;16.20;6.67;;;4.30;99.90;;;;;;5024529;28;20239;-60
2023/01/31 04:43:53;;;;;;;19.17;6.67;;;4.30;99.90;;;;;;5031036;28;20218;-60
2023/01/31 04:46:20;;;;;;;23.47;7.53;;;4.30;99.90;;;;;;5026421;28;20556;-60
2023/01/31 04:48:47;;;;;;;18.13;6.37;;;4.30;99.90;;;;;;5031651;28;20206;-63
2023/01/31 04:51:13;;;;;;;18.30;6.50;;;4.30;99.90;;;;;;5031456;28;20333;-60
2023/01/31 04:53:43;;;;;;;17.33;5.73;;;4.20;99.90;;;;;;5030874;28;20192;-61
2023/01/31 04:56:10;;;;;;;14.53;6.90;;;4.20;99.90;;;;;;5032325;28;20262;-60
2023/01/31 04:58:37;;;;;;;23.87;6.63;;;4.20;99.90;;;;;;5035153;28;20198;-60
2023/01/31 05:01:04;;;;;;;21.27;7.80;;;4.30;99.90;;;;;;5027228;28;20201;-59
2023/01/31 05:03:31;;;;;;;13.57;6.50;;;4.30;99.90;;;;;;5028705;28;20327;-61
2023/01/31 05:05:58;;;;;;;20.17;6.73;;;4.30;99.90;;;;;;5033807;28;20205;-62
2023/01/31 05:08:25;;;;;;;18.23;7.00;;;4.30;99.90;;;;;;5031344;28;20594;-62
2023/01/31 05:11:02;;;;;;;12.97;6.50;;;4.40;99.90;;;;;;5034761;28;20294;-62
2023/01/31 05:13:31;;;;;;;20.30;6.97;;;4.40;99.90;;;;;;5027093;28;20197;-62
2023/01/31 05:15:58;;;;;;;20.20;7.17;;;4.40;99.90;;;;;;5028655;28;20239;-62
2023/01/31 05:18:25;;;;;;;13.97;7.17;;;4.40;99.90;;;;;;5027138;28;20209;-61
2023/01/31 05:20:52;;;;;;;29.53;8.27;;;4.40;99.90;;;;;;5031757;28;20358;-62
2023/01/31 05:23:19;;;;;;;17.17;6.20;;;4.40;99.90;;;;;;5029384;28;20367;-64
2023/01/31 05:25:49;;;;;;;21.27;6.83;;;4.50;99.90;;;;;;5024363;28;20210;-61
2023/01/31 05:28:16;;;;;;;16.37;6.83;;;4.50;99.90;;;;;;5030668;28;20229;-60
2023/01/31 05:30:43;;;;;;;20.60;7.37;;;4.50;99.90;;;;;;5029405;28;20210;-63
2023/01/31 05:33:10;;;;;;;20.63;7.60;;;4.50;99.90;;;;;;5025382;28;20212;-61
2023/01/31 05:35:38;;;;;;;22.07;7.10;;;4.50;99.90;;;;;;5030344;28;20216;-59
2023/01/31 05:38:05;;;;;;;21.03;7.80;;;4.40;99.90;;;;;;5029056;28;20266;-64
2023/01/31 05:40:31;;;;;;;24.43;7.70;;;4.50;99.90;;;;;;5034038;28;20299;-62
2023/01/31 05:42:59;;;;;;;21.87;7.50;;;4.50;99.90;;;;;;5034652;28;20605;-62
2023/01/31 05:45:27;;;;;;;18.27;6.37;;;4.50;99.90;;;;;;5035576;28;20235;-63
2023/01/31 05:47:56;;;;;;;18.67;7.03;;;4.40;99.90;;;;;;5034392;28;20242;-63
2023/01/31 05:50:23;;;;;;;19.83;8.23;;;4.50;99.90;;;;;;5034675;28;20599;-63
2023/01/31 05:52:54;;;;;;;21.20;6.87;;;4.50;99.90;;;;;;5035676;28;20206;-63
2023/01/31 05:55:22;;;;;;;19.23;7.17;;;4.40;99.90;;;;;;5037373;28;20704;-63
2023/01/31 05:57:48;;;;;;;20.73;7.23;;;4.40;99.90;;;;;;5036580;28;20233;-62
2023/01/31 06:00:16;;;;;;;22.03;7.57;;;4.40;99.90;;;;;;5034996;28;20295;-62
2023/01/31 06:02:43;;;;;;;28.10;7.90;;;4.40;99.90;;;;;;5034360;28;20237;-62
2023/01/31 06:05:10;;;;;;;17.73;7.10;;;4.30;99.90;;;;;;5037548;28;20201;-62
2023/01/31 06:07:37;;;;;;;20.50;7.07;;;4.40;99.90;;;;;;5034928;28;20323;-62
2023/01/31 06:10:07;;;;;;;15.93;7.10;;;4.40;99.90;;;;;;5031798;28;20206;-62
2023/01/31 06:12:34;;;;;;;20.33;6.30;;;4.30;99.90;;;;;;5035552;28;20212;-62
2023/01/31 06:15:03;;;;;;;18.13;6.37;;;4.30;99.90;;;;;;5028715;28;20200;-63
2023/01/31 06:17:30;;;;;;;18.23;6.93;;;4.30;99.90;;;;;;5032569;28;20211;-63
2023/01/31 06:19:57;;;;;;;16.33;7.33;;;4.40;99.90;;;;;;5028881;28;20247;-62
2023/01/31 06:22:24;;;;;;;17.13;8.37;;;4.30;99.90;;;;;;5030980;28;20207;-64
2023/01/31 06:24:51;;;;;;;16.60;6.67;;;4.40;99.90;;;;;;5027449;28;20791;-63
2023/01/31 06:27:18;;;;;;;13.43;5.90;;;4.40;99.90;;;;;;5032949;28;20198;-62
2023/01/31 06:29:45;;;;;;;15.60;5.50;;;4.30;99.90;;;;;;5036097;28;20216;-66
2023/01/31 06:32:11;;;;;;;12.27;6.47;;;4.40;99.90;;;;;;5034829;28;20202;-62
2023/01/31 06:34:38;;;;;;;17.07;5.80;;;4.40;99.90;;;;;;5036846;28;20687;-63
2023/01/31 06:37:09;;;;;;;17.33;6.20;;;4.40;99.90;;;;;;5035161;28;20249;-63
2023/01/31 06:39:36;;;;;;;16.43;6.47;;;4.40;99.90;;;;;;5034284;28;20211;-63
2023/01/31 06:42:03;;;;;;;14.47;6.37;;;4.40;99.90;;;;;;5035861;28;20775;-64
2023/01/31 06:44:32;;;;;;;11.87;6.13;;;4.40;99.90;;;;;;5036371;28;20196;-62
2023/01/31 06:47:02;;;;;;;11.90;5.50;;;4.40;99.90;;;;;;5033708;28;20349;-63
2023/01/31 06:49:28;;;;;;;16.20;6.73;;;4.50;99.90;;;;;;5034882;28;20681;-63
2023/01/31 06:51:56;;;;;;;15.87;7.07;;;4.50;99.90;;;;;;5032363;28;20248;-63
2023/01/31 06:54:22;;;;;;;15.93;6.53;;;4.40;99.90;;;;;;5035818;28;20317;-62
2023/01/31 06:56:49;;;;;;;19.57;5.70;;;4.40;99.90;;;;;;5036371;28;20581;-63
2023/01/31 06:59:16;;;;;;;14.00;6.47;;;4.40;99.90;;;;;;5030956;28;20217;-65
2023/01/31 07:01:43;;;;;;;11.87;6.83;;;4.40;99.90;;;;;;5023527;28;20226;-63
2023/01/31 07:04:09;;;;;;;15.77;6.70;;;4.40;99.90;;;;;;5035245;28;20591;-63
2023/01/31 07:06:36;;;;;;;9.77;5.33;;;4.40;99.90;;;;;;5031605;28;20242;-63
2023/01/31 07:09:03;;;;;;;16.47;6.53;;;4.40;99.90;;;;;;5031581;28;20552;-63
2023/01/31 07:11:30;;;;;;;12.93;5.80;;;4.40;99.90;;;;;;5034871;28;20208;-63
2023/01/31 07:13:57;;;;;;;11.60;5.73;;;4.40;99.90;;;;;;5035740;28;20207;-63
2023/01/31 07:16:24;;;;;;;15.47;5.60;;;4.30;99.90;;;;;;5031903;28;20228;-62
2023/01/31 07:18:52;;;;;;;16.97;6.27;;;4.40;99.90;;;;;;5027312;28;20204;-63
2023/01/31 07:21:20;;;;;;;17.33;5.77;;;4.30;99.90;;;;;;5035446;28;20562;-63
2023/01/31 07:23:47;;;;;;;19.30;5.87;;;4.30;99.90;;;;;;5034445;28;20297;-63
2023/01/31 07:26:14;;;;;;;16.47;6.20;;;4.30;99.90;;;;;;5032740;28;20618;-66
2023/01/31 07:28:41;;;;;;;19.60;7.07;;;4.30;99.90;;;;;;5026218;28;20306;-63
2023/01/31 07:31:12;;;;;;;19.00;6.73;;;4.30;99.90;;;;;;5026692;28;20202;-63
2023/01/31 07:33:39;;;;;;;14.57;6.13;;;4.30;99.90;;;;;;5030933;28;20198;-63
2023/01/31 07:36:07;;;;;;;16.87;6.77;;;4.40;99.90;;;;;;5033220;28;20230;-62
2023/01/31 07:38:34;;;;;;;19.47;6.93;;;4.30;99.90;;;;;;5031438;28;20212;-62
2023/01/31 07:41:03;;;;;;;13.87;6.40;;;4.30;99.90;;;;;;5028144;28;20211;-63
2023/01/31 07:43:31;;;;;;;16.33;6.37;;;4.40;99.90;;;;;;5027592;28;20213;-62
2023/01/31 07:45:57;;;;;;;19.80;6.40;;;4.40;99.90;;;;;;4666866;28;10000675;-62
2023/01/31 07:48:25;;;;;;;12.07;5.97;;;4.30;99.90;;;;;;5024799;28;20201;-62
2023/01/31 07:51:02;;;;;;;16.57;6.07;;;4.40;99.90;;;;;;5018153;28;20193;-62
2023/01/31 07:53:31;;;;;;;16.97;6.27;;;4.40;99.90;;;;;;5032361;28;20664;-63
2023/01/31 07:56:12;;;;;;;15.83;6.37;;;4.40;99.90;;;;;;5029325;28;20214;-62
2023/01/31 07:58:40;;;;;;;14.13;5.83;;;4.40;99.90;;;;;;5024906;28;20207;-62
2023/01/31 08:04:07;;;;;;;19.07;6.40;;;4.40;99.90;;;;;;5032243;28;20658;-62
2023/01/31 08:06:49;;;;;;;12.90;6.43;;;4.50;99.90;;;;;;5028391;28;20573;-63
2023/01/31 08:09:16;;;;;;;13.63;5.20;;;4.50;99.90;;;;;;5031831;28;20317;-63
2023/01/31 08:11:43;;;;;;;13.50;5.30;;;4.50;99.90;;;;;;5032170;28;20294;-66
2023/01/31 08:14:10;;;;;;;14.43;5.10;;;4.50;99.90;;;;;;5036181;28;20213;-62
2023/01/31 08:16:37;;;;;;;13.87;6.20;;;4.60;99.90;;;;;;5030904;28;20229;-64
2023/01/31 08:19:04;;;;;;;17.93;5.77;;;4.60;99.90;;;;;;5032277;28;20506;-63
2023/01/31 08:21:31;;;;;;;14.17;5.57;;;4.60;99.90;;;;;;5027044;28;20282;-62
2023/01/31 08:23:58;;;;;;;13.27;5.83;;;4.60;99.90;;;;;;5031756;28;20205;-62
2023/01/31 08:26:24;;;;;;;14.67;5.50;;;4.70;99.90;;;;;;5030784;28;20200;-63
2023/01/31 08:28:55;;;;;;;16.77;5.30;;;4.70;99.90;;;;;;5034876;28;20220;-63
2023/01/31 08:31:24;;;;;;;16.90;5.63;;;4.70;99.90;;;;;;5030683;28;20655;-63
2023/01/31 08:33:52;;;;;;;12.00;5.67;;;4.70;99.90;;;;;;5021930;28;20239;-62
2023/01/31 08:36:22;;;;;;;10.30;4.90;;;4.80;99.90;;;;;;5024685;28;20316;-64
2023/01/31 08:38:49;;;;;;;18.07;5.53;;;4.80;99.90;;;;;;5027045;28;20209;-63
2023/01/31 08:41:18;;;;;;;13.57;5.03;;;4.90;99.90;;;;;;5022000;28;20230;-62
2023/01/31 08:43:47;;;;;;;13.03;4.93;;;4.90;99.90;;;;;;5024069;28;20205;-62
2023/01/31 08:46:29;;;;;;;15.10;5.10;;;4.90;99.90;;;;;;5025133;28;20671;-63
2023/01/31 08:48:57;;;;;;;15.70;4.63;;;5.00;99.90;;;;;;5024201;28;20295;-62
2023/01/31 08:51:24;;;;;;;8.93;4.20;;;5.00;99.90;;;;;;5029059;28;20573;-62
2023/01/31 08:53:51;;;;;;;19.53;5.57;;;5.00;99.90;;;;;;5025665;28;20772;-62
2023/01/31 08:56:20;;;;;;;10.80;5.17;;;5.10;99.90;;;;;;5021379;28;20235;-61
2023/01/31 08:58:47;;;;;;;9.30;4.60;;;5.10;99.90;;;;;;5026409;28;20247;-62
2023/01/31 09:01:16;;;;;;;11.53;4.27;;;5.10;99.90;;;;;;5024048;28;20194;-61
2023/01/31 09:03:44;;;;;;;18.37;4.83;;;5.20;99.90;;;;;;5027083;28;20228;-64
2023/01/31 09:06:15;;;;;;;17.67;4.93;;;5.20;99.90;;;;;;5030512;28;20212;-61
2023/01/31 09:08:41;;;;;;;12.87;4.27;;;5.20;99.90;;;;;;5032804;28;20256;-63
2023/01/31 09:11:08;;;;;;;12.40;4.77;;;5.20;99.90;;;;;;5029269;28;20654;-62
2023/01/31 09:13:35;;;;;;;12.43;3.70;;;5.20;99.90;;;;;;5032500;28;20199;-62
2023/01/31 09:16:07;;;;;;;12.53;4.00;;;5.30;99.90;;;;;;5024387;28;20719;-61
2023/01/31 09:18:36;;;;;;;10.13;4.40;;;5.30;1.00;;;;;;5020209;28;20204;-62
2023/01/31 09:21:05;;;;;;;12.77;4.70;;;5.40;1.00;;;;;;5028076;28;20297;-62
2023/01/31 09:23:33;;;;;;;7.27;3.50;;;5.50;99.90;;;;;;5027924;28;20300;-62
2023/01/31 09:25:59;;;;;;;12.27;4.60;;;5.70;1.00;;;;;;5032395;28;20208;-62
2023/01/31 09:28:26;;;;;;;10.43;4.13;;;5.90;99.90;;;;;;5029391;28;20580;-63
2023/01/31 09:30:53;;;;;;;12.93;4.20;;;5.90;1.00;;;;;;5027613;28;20713;-62
2023/01/31 09:33:21;;;;;;;10.57;4.30;;;5.90;1.00;;;;;;5027211;28;20202;-62
2023/01/31 09:35:56;;;;;;;10.27;4.20;;;5.90;1.00;;;;;;5030423;28;20459;-63
2023/01/31 09:38:23;;;;;;;12.83;4.57;;;5.80;99.90;;;;;;5028335;28;20595;-63
2023/01/31 09:40:51;;;;;;;10.17;3.80;;;5.90;1.00;;;;;;5030168;28;20225;-62
2023/01/31 09:43:22;;;;;;;11.17;4.40;;;5.90;1.00;;;;;;5026633;28;20198;-62
2023/01/31 09:45:51;;;;;;;11.03;4.27;;;5.90;1.00;;;;;;5032816;28;20194;-62
2023/01/31 09:48:23;;;;;;;11.37;4.17;;;5.90;1.00;;;;;;5023477;28;20222;-63
2023/01/31 09:50:55;;;;;;;10.80;4.20;;;5.90;99.90;;;;;;5029547;28;20214;-63
2023/01/31 09:53:26;;;;;;;10.70;4.30;;;5.90;1.00;;;;;;5033672;28;20211;-62
2023/01/31 09:56:02;;;;;;;12.87;3.87;;;5.90;1.00;;;;;;5017343;28;20230;-64
2023/01/31 09:58:33;;;;;;;8.37;3.60;;;5.90;1.00;;;;;;5033171;28;20656;-65
2023/01/31 10:01:16;;;;;;;8.23;3.67;;;5.90;1.00;;;;;;5033073;28;20544;-65
2023/01/31 10:04:01;;;;;;;8.33;3.67;;;5.90;1.00;;;;;;5036067;28;20233;-63
2023/01/31 10:06:57;;;;;;;8.23;4.20;;;5.90;1.00;;;;;;5033099;28;20231;-62
2023/01/31 10:09:32;;;;;;;12.90;4.50;;;5.90;1.00;;;;;;5029450;28;20348;-62
2023/01/31 10:12:26;;;;;;;18.77;5.10;;;6.00;87.00;;;;;;5018566;28;20244;-62
2023/01/31 10:15:00;;;;;;;13.27;4.13;;;6.00;99.90;;;;;;5025020;28;20232;-64
2023/01/31 10:17:37;;;;;;;9.67;5.03;;;6.00;1.00;;;;;;5025622;28;20227;-59
2023/01/31 10:20:20;;;;;;;14.03;5.50;;;6.00;1.00;;;;;;5032844;28;20292;-59
2023/01/31 10:23:14;;;;;;;12.80;5.03;;;6.00;1.00;;;;;;5032066;28;20211;-59
2023/01/31 10:25:58;;;;;;;11.07;5.13;;;6.10;99.90;;;;;;5037717;28;20490;-60
2023/01/31 10:28:41;;;;;;;14.40;5.17;;;6.10;99.90;;;;;;5031701;28;20264;-62
2023/01/31 10:31:27;;;;;;;13.47;5.33;;;6.10;1.00;;;;;;5029436;28;20292;-60
2023/01/31 10:34:09;;;;;;;14.63;6.00;;;6.20;1.00;;;;;;5032373;28;20669;-60
2023/01/31 10:36:41;;;;;;;15.17;5.90;;;6.20;1.00;;;;;;5029995;28;20233;-60
2023/01/31 10:39:21;;;;;;;13.73;5.87;;;6.20;1.00;;;;;;5029492;28;20290;-60
2023/01/31 10:42:07;;;;;;;19.03;5.67;;;6.30;32.90;;;;;;5032375;28;20206;-60
2023/01/31 10:44:51;;;;;;;18.40;6.90;;;6.30;1.00;;;;;;5028442;28;20270;-61
2023/01/31 10:47:20;;;;;;;16.23;6.93;;;6.40;1.00;;;;;;5027653;28;20251;-60
2023/01/31 10:49:48;;;;;;;10.90;5.97;;;6.40;1.00;;;;;;5034207;28;20209;-59
2023/01/31 10:52:43;;;;;;;13.60;6.00;;;6.50;1.00;;;;;;5032096;28;20203;-61
2023/01/31 10:55:26;;;;;;;12.40;5.43;;;6.50;99.90;;;;;;5036877;28;20209;-60
2023/01/31 10:57:54;;;;;;;13.93;6.50;;;6.50;1.00;;;;;;5037523;28;20302;-60
2023/01/31 11:00:29;;;;;;;18.37;7.00;;;6.60;99.90;;;;;;5033087;28;21657;-64
2023/01/31 11:02:57;;;;;;;15.07;6.80;;;6.60;1.00;;;;;;5034618;28;20238;-61
2023/01/31 11:05:27;;;;;;;17.10;7.20;;;6.70;1.00;;;;;;5034578;28;20703;-61
2023/01/31 11:08:00;;;;;;;13.70;6.50;;;6.70;1.00;;;;;;5033207;28;20211;-61
2023/01/31 11:10:29;;;;;;;17.87;7.27;;;6.80;1.00;;;;;;5028536;28;20866;-59
2023/01/31 11:13:16;;;;;;;12.87;6.83;;;6.90;1.00;;;;;;5032654;28;20264;-60
2023/01/31 11:15:43;;;;;;;16.00;6.57;;;6.80;1.00;;;;;;5034009;28;20288;-60
2023/01/31 11:18:21;;;;;;;11.20;5.77;;;6.90;1.00;;;;;;5033059;28;20737;-60
2023/01/31 11:20:48;;;;;;;18.70;6.23;;;7.00;1.00;;;;;;5029989;28;20212;-60
2023/01/31 11:23:22;;;;;;;13.77;5.37;;;7.10;1.00;;;;;;5034896;28;20306;-61
2023/01/31 11:25:51;;;;;;;10.20;5.07;;;7.20;1.00;;;;;;5034299;28;20194;-60
2023/01/31 11:28:37;;;;;;;15.03;5.30;;;7.30;1.00;;;;;;5032840;28;20207;-61
2023/01/31 11:31:06;;;;;;;9.53;3.93;;;7.20;99.90;;;;;;5032706;28;20306;-61
2023/01/31 11:33:57;;;;;;;12.97;4.97;;;7.30;1.00;;;;;;5032709;28;20238;-61
2023/01/31 11:36:25;;;;;;;5.77;3.83;;;7.30;1.00;;;;;;5033997;28;20242;-61
2023/01/31 11:38:53;;;;;;;12.73;4.60;;;7.40;1.00;;;;;;5033753;28;20675;-61
2023/01/31 11:41:35;;;;;;;10.63;4.20;;;7.40;1.00;;;;;;5036033;28;20192;-61
2023/01/31 11:44:17;;;;;;;8.67;4.10;;;7.40;1.00;;;;;;5032813;28;20233;-62
2023/01/31 11:46:56;;;;;;;15.23;4.13;;;7.50;35.80;;;;;;5033285;28;20195;-61
2023/01/31 11:49:31;;;;;;;11.10;4.07;;;7.50;1.00;;;;;;5033135;28;20222;-61
2023/01/31 11:52:01;;;;;;;11.23;3.97;;;7.60;1.00;;;;;;5029482;28;20196;-61
2023/01/31 11:54:32;;;;;;;14.23;3.87;;;7.60;99.90;;;;;;5034276;28;20609;-61
2023/01/31 11:57:01;;;;;;;9.63;4.00;;;7.60;1.00;;;;;;5032127;28;20683;-61
2023/01/31 11:59:29;;;;;;;8.93;3.43;;;7.70;1.00;;;;;;5034745;28;20201;-61
2023/01/31 12:01:59;;;;;;;9.73;4.20;;;7.70;99.90;;;;;;5032656;28;20664;-64
2023/01/31 12:04:38;;;;;;;12.73;3.60;;;7.80;99.90;;;;;;5034797;28;20250;-63
2023/01/31 12:07:21;;;;;;;10.77;3.20;;;7.80;1.00;;;;;;5032642;28;20241;-65
2023/01/31 12:09:48;;;;;;;8.30;3.37;;;7.70;99.90;;;;;;5034427;28;20202;-64
2023/01/31 12:12:24;;;;;;;7.53;3.40;;;7.70;1.00;;;;;;5034614;28;20214;-64
2023/01/31 12:14:54;;;;;;;12.70;4.07;;;7.60;1.00;;;;;;5016920;28;20263;-63
2023/01/31 12:17:20;;;;;;;9.73;3.73;;;7.60;10.40;;;;;;5033902;28;20212;-64
2023/01/31 12:20:25;;;;;;;10.10;3.43;;;7.60;1.00;;;;;;5033506;28;20570;-63
2023/01/31 12:23:26;;;;;;;12.70;3.47;;;7.60;99.90;;;;;;5033915;28;20197;-63
2023/01/31 12:26:21;;;;;;;11.27;3.47;;;7.60;99.90;;;;;;5033741;28;20200;-63
2023/01/31 12:29:14;;;;;;;11.73;3.43;;;7.50;99.90;;;;;;5032872;28;20207;-64
2023/01/31 12:31:57;;;;;;;9.83;3.20;;;7.50;99.90;;;;;;5029273;28;20206;-63
2023/01/31 12:35:00;;;;;;;14.70;3.67;;;7.50;99.90;;;;;;5036526;28;20626;-63
2023/01/31 12:37:53;;;;;;;14.80;3.60;;;7.50;99.90;;;;;;5035108;28;20322;-63
2023/01/31 12:40:35;;;;;;;7.83;3.37;;;7.50;99.90;;;;;;5034071;28;20225;-64
2023/01/31 12:43:23;;;;;;;7.77;3.63;;;7.60;99.90;;;;;;5033128;28;20253;-63
2023/01/31 12:46:10;;;;;;;11.40;4.00;;;7.50;99.90;;;;;;5034520;28;20238;-63
2023/01/31 12:48:52;;;;;;;6.40;2.77;;;7.50;99.90;;;;;;5034870;28;20210;-63
2023/01/31 12:51:25;;;;;;;7.53;3.30;;;7.50;99.90;;;;;;5028510;28;20236;-63
2023/01/31 12:54:03;;;;;;;7.87;3.33;;;7.60;99.90;;;;;;5034020;28;20705;-64
2023/01/31 12:56:36;;;;;;;10.90;3.60;;;7.60;99.90;;;;;;5019753;28;20202;-64
2023/01/31 12:59:55;;;;;;;8.23;3.33;;;7.60;99.90;;;;;;5026562;28;20663;-64
2023/01/31 13:02:28;;;;;;;4.60;2.60;;;7.50;99.90;;;;;;4946824;28;20262;-65
2023/01/31 13:05:08;;;;;;;13.63;3.53;;;7.50;99.90;;;;;;4936667;28;20210;-63
2023/01/31 13:07:42;;;;;;;18.43;3.53;;;7.50;99.90;;;;;;4947217;28;20404;-63
2023/01/31 13:10:36;;;;;;;7.20;3.00;;;7.50;99.90;;;;;;4944196;28;20308;-63
2023/01/31 13:13:10;;;;;;;8.10;3.20;;;7.50;99.90;;;;;;4949998;28;20208;-64
2023/01/31 13:15:54;;;;;;;6.83;2.87;;;7.50;99.90;;;;;;4934918;28;20390;-64
2023/01/31 13:18:22;;;;;;;11.67;3.13;;;7.50;99.90;;;;;;4946180;28;20662;-63
2023/01/31 13:20:51;;;;;;;9.60;3.20;;;7.60;99.90;;;;;;4947824;28;20300;-62
2023/01/31 13:23:32;;;;;;;11.63;3.37;;;7.60;99.90;;;;;;4946688;28;20219;-62
2023/01/31 13:26:27;;;;;;;12.00;3.23;;;7.70;99.90;;;;;;4942502;28;20213;-63